sensor_id;sensor_type;location;lat;lon;timestamp;P1;durP1;ratioP1;P2;durP2;ratioP2
351;SDS011;164;50.784;6.496;2022-07-29T00:01:51;3.33;;;2.70;;
351;SDS011;164;50.784;6.496;2022-07-29T00:04:18;7.13;;;3.17;;
351;SDS011;164;50.784;6.496;2022-07-29T00:06:48;5.95;;;3.00;;
351;SDS011;164;50.784;6.496;2022-07-29T00:09:16;3.78;;;2.40;;
351;SDS011;164;50.784;6.496;2022-07-29T00:11:43;3.80;;;2.80;;
351;SDS011;164;50.784;6.496;2022-07-29T00:14:15;5.97;;;2.47;;
351;SDS011;164;50.784;6.496;2022-07-29T00:16:42;4.38;;;2.40;;
351;SDS011;164;50.784;6.496;2022-07-29T00:19:09;3.20;;;2.42;;
351;SDS011;164;50.784;6.496;2022-07-29T00:21:39;3.95;;;2.25;;
351;SDS011;164;50.784;6.496;2022-07-29T00:24:09;4.30;;;2.55;;
351;SDS011;164;50.784;6.496;2022-07-29T00:26:38;3.00;;;2.45;;
351;SDS011;164;50.784;6.496;2022-07-29T00:29:05;4.80;;;2.75;;
351;SDS011;164;50.784;6.496;2022-07-29T00:31:32;3.88;;;3.22;;
351;SDS011;164;50.784;6.496;2022-07-29T00:34:01;3.97;;;2.65;;
351;SDS011;164;50.784;6.496;2022-07-29T00:36:28;5.22;;;2.30;;
351;SDS011;164;50.784;6.496;2022-07-29T00:39:00;4.60;;;2.40;;
351;SDS011;164;50.784;6.496;2022-07-29T00:41:27;6.75;;;2.70;;
351;SDS011;164;50.784;6.496;2022-07-29T00:43:55;7.32;;;2.25;;
351;SDS011;164;50.784;6.496;2022-07-29T00:46:22;4.22;;;2.70;;
351;SDS011;164;50.784;6.496;2022-07-29T00:48:52;3.38;;;2.70;;
351;SDS011;164;50.784;6.496;2022-07-29T00:51:19;2.67;;;2.47;;
351;SDS011;164;50.784;6.496;2022-07-29T00:53:49;5.40;;;2.33;;
351;SDS011;164;50.784;6.496;2022-07-29T00:56:16;4.32;;;2.30;;
351;SDS011;164;50.784;6.496;2022-07-29T00:58:46;2.80;;;2.25;;
351;SDS011;164;50.784;6.496;2022-07-29T01:01:15;4.07;;;2.55;;
351;SDS011;164;50.784;6.496;2022-07-29T01:03:42;5.53;;;2.85;;
351;SDS011;164;50.784;6.496;2022-07-29T01:06:09;2.72;;;2.40;;
351;SDS011;164;50.784;6.496;2022-07-29T01:08:36;3.38;;;2.50;;
351;SDS011;164;50.784;6.496;2022-07-29T01:11:03;4.78;;;2.80;;
351;SDS011;164;50.784;6.496;2022-07-29T01:13:30;3.88;;;2.80;;
351;SDS011;164;50.784;6.496;2022-07-29T01:16:02;6.53;;;2.03;;
351;SDS011;164;50.784;6.496;2022-07-29T01:18:39;4.25;;;2.80;;
351;SDS011;164;50.784;6.496;2022-07-29T01:21:24;5.95;;;3.00;;
351;SDS011;164;50.784;6.496;2022-07-29T01:24:22;2.78;;;2.42;;
351;SDS011;164;50.784;6.496;2022-07-29T01:27:01;5.60;;;2.65;;
351;SDS011;164;50.784;6.496;2022-07-29T01:29:41;5.97;;;2.78;;
351;SDS011;164;50.784;6.496;2022-07-29T01:32:22;2.50;;;2.13;;
351;SDS011;164;50.784;6.496;2022-07-29T01:34:56;2.50;;;2.40;;
351;SDS011;164;50.784;6.496;2022-07-29T01:37:28;5.10;;;2.30;;
351;SDS011;164;50.784;6.496;2022-07-29T01:40:02;2.88;;;2.50;;
351;SDS011;164;50.784;6.496;2022-07-29T01:42:38;2.85;;;2.35;;
351;SDS011;164;50.784;6.496;2022-07-29T01:45:14;6.63;;;2.80;;
351;SDS011;164;50.784;6.496;2022-07-29T01:47:49;3.10;;;2.15;;
351;SDS011;164;50.784;6.496;2022-07-29T01:50:31;3.40;;;2.70;;
351;SDS011;164;50.784;6.496;2022-07-29T01:53:06;3.35;;;2.80;;
351;SDS011;164;50.784;6.496;2022-07-29T01:55:38;3.95;;;2.90;;
351;SDS011;164;50.784;6.496;2022-07-29T01:58:08;3.53;;;2.88;;
351;SDS011;164;50.784;6.496;2022-07-29T02:00:39;6.65;;;3.15;;
351;SDS011;164;50.784;6.496;2022-07-29T02:03:09;4.68;;;3.40;;
351;SDS011;164;50.784;6.496;2022-07-29T02:05:39;9.00;;;3.83;;
351;SDS011;164;50.784;6.496;2022-07-29T02:08:08;4.13;;;2.97;;
351;SDS011;164;50.784;6.496;2022-07-29T02:10:37;7.45;;;3.30;;
351;SDS011;164;50.784;6.496;2022-07-29T02:13:06;7.05;;;2.97;;
351;SDS011;164;50.784;6.496;2022-07-29T02:15:38;6.07;;;3.75;;
351;SDS011;164;50.784;6.496;2022-07-29T02:18:09;5.40;;;4.07;;
351;SDS011;164;50.784;6.496;2022-07-29T02:20:42;3.92;;;3.30;;
351;SDS011;164;50.784;6.496;2022-07-29T02:23:13;6.03;;;3.10;;
351;SDS011;164;50.784;6.496;2022-07-29T02:25:44;7.22;;;3.15;;
351;SDS011;164;50.784;6.496;2022-07-29T02:28:13;4.20;;;3.53;;
351;SDS011;164;50.784;6.496;2022-07-29T02:30:43;5.93;;;2.97;;
351;SDS011;164;50.784;6.496;2022-07-29T02:33:15;3.72;;;2.55;;
351;SDS011;164;50.784;6.496;2022-07-29T02:35:45;5.30;;;3.33;;
351;SDS011;164;50.784;6.496;2022-07-29T02:38:14;3.83;;;2.92;;
351;SDS011;164;50.784;6.496;2022-07-29T02:41:03;5.72;;;2.67;;
351;SDS011;164;50.784;6.496;2022-07-29T02:43:36;6.38;;;2.70;;
351;SDS011;164;50.784;6.496;2022-07-29T02:46:08;2.67;;;2.30;;
351;SDS011;164;50.784;6.496;2022-07-29T02:48:43;4.32;;;2.95;;
351;SDS011;164;50.784;6.496;2022-07-29T02:51:18;7.20;;;3.25;;
351;SDS011;164;50.784;6.496;2022-07-29T02:53:51;7.75;;;3.40;;
351;SDS011;164;50.784;6.496;2022-07-29T02:56:23;2.70;;;2.53;;
351;SDS011;164;50.784;6.496;2022-07-29T02:58:53;5.47;;;2.30;;
351;SDS011;164;50.784;6.496;2022-07-29T03:01:23;5.03;;;2.53;;
351;SDS011;164;50.784;6.496;2022-07-29T03:03:57;7.38;;;3.30;;
351;SDS011;164;50.784;6.496;2022-07-29T03:06:29;6.82;;;3.22;;
351;SDS011;164;50.784;6.496;2022-07-29T03:08:59;6.75;;;2.63;;
351;SDS011;164;50.784;6.496;2022-07-29T03:11:28;8.07;;;3.08;;
351;SDS011;164;50.784;6.496;2022-07-29T03:13:56;3.58;;;2.20;;
351;SDS011;164;50.784;6.496;2022-07-29T03:16:25;6.75;;;2.90;;
351;SDS011;164;50.784;6.496;2022-07-29T03:18:55;4.93;;;2.78;;
351;SDS011;164;50.784;6.496;2022-07-29T03:21:25;6.88;;;2.80;;
351;SDS011;164;50.784;6.496;2022-07-29T03:23:52;4.95;;;2.40;;
351;SDS011;164;50.784;6.496;2022-07-29T03:26:18;6.22;;;2.53;;
351;SDS011;164;50.784;6.496;2022-07-29T03:28:45;7.55;;;2.45;;
351;SDS011;164;50.784;6.496;2022-07-29T03:31:14;6.55;;;2.50;;
351;SDS011;164;50.784;6.496;2022-07-29T03:33:45;4.03;;;2.10;;
351;SDS011;164;50.784;6.496;2022-07-29T03:36:12;6.10;;;2.40;;
351;SDS011;164;50.784;6.496;2022-07-29T03:38:39;8.45;;;3.03;;
351;SDS011;164;50.784;6.496;2022-07-29T03:41:12;3.65;;;2.30;;
351;SDS011;164;50.784;6.496;2022-07-29T03:49:39;4.07;;;2.05;;
351;SDS011;164;50.784;6.496;2022-07-29T03:52:07;2.50;;;2.30;;
351;SDS011;164;50.784;6.496;2022-07-29T03:54:36;5.28;;;3.05;;
351;SDS011;164;50.784;6.496;2022-07-29T03:57:07;5.25;;;2.70;;
351;SDS011;164;50.784;6.496;2022-07-29T03:59:38;6.78;;;2.22;;
351;SDS011;164;50.784;6.496;2022-07-29T04:02:09;8.50;;;2.60;;
351;SDS011;164;50.784;6.496;2022-07-29T04:04:39;4.43;;;2.35;;
351;SDS011;164;50.784;6.496;2022-07-29T04:07:06;3.60;;;3.20;;
351;SDS011;164;50.784;6.496;2022-07-29T04:09:33;3.10;;;2.33;;
351;SDS011;164;50.784;6.496;2022-07-29T04:12:03;4.32;;;2.78;;
351;SDS011;164;50.784;6.496;2022-07-29T04:14:31;4.43;;;3.22;;
351;SDS011;164;50.784;6.496;2022-07-29T04:17:01;2.88;;;2.60;;
351;SDS011;164;50.784;6.496;2022-07-29T04:19:28;3.95;;;2.97;;
351;SDS011;164;50.784;6.496;2022-07-29T04:22:00;4.90;;;2.05;;
351;SDS011;164;50.784;6.496;2022-07-29T04:24:30;3.80;;;2.38;;
351;SDS011;164;50.784;6.496;2022-07-29T04:26:57;5.65;;;2.80;;
351;SDS011;164;50.784;6.496;2022-07-29T04:29:23;4.07;;;2.47;;
351;SDS011;164;50.784;6.496;2022-07-29T04:31:51;3.75;;;2.50;;
351;SDS011;164;50.784;6.496;2022-07-29T04:34:18;5.10;;;2.60;;
351;SDS011;164;50.784;6.496;2022-07-29T04:36:47;5.43;;;3.08;;
351;SDS011;164;50.784;6.496;2022-07-29T04:39:18;2.22;;;2.08;;
351;SDS011;164;50.784;6.496;2022-07-29T04:41:45;6.68;;;2.45;;
351;SDS011;164;50.784;6.496;2022-07-29T04:44:12;3.85;;;2.70;;
351;SDS011;164;50.784;6.496;2022-07-29T04:46:39;3.70;;;2.53;;
351;SDS011;164;50.784;6.496;2022-07-29T04:49:08;3.28;;;2.00;;
351;SDS011;164;50.784;6.496;2022-07-29T04:51:35;5.43;;;2.17;;
351;SDS011;164;50.784;6.496;2022-07-29T04:54:02;5.30;;;2.42;;
351;SDS011;164;50.784;6.496;2022-07-29T04:56:31;6.95;;;2.95;;
351;SDS011;164;50.784;6.496;2022-07-29T04:59:01;4.05;;;2.25;;
351;SDS011;164;50.784;6.496;2022-07-29T05:01:30;4.60;;;2.97;;
351;SDS011;164;50.784;6.496;2022-07-29T05:03:57;3.95;;;2.40;;
351;SDS011;164;50.784;6.496;2022-07-29T05:06:24;4.53;;;2.40;;
351;SDS011;164;50.784;6.496;2022-07-29T05:08:51;7.03;;;2.88;;
351;SDS011;164;50.784;6.496;2022-07-29T05:11:18;5.45;;;2.42;;
351;SDS011;164;50.784;6.496;2022-07-29T05:13:46;6.20;;;2.35;;
351;SDS011;164;50.784;6.496;2022-07-29T05:16:13;4.90;;;2.35;;
351;SDS011;164;50.784;6.496;2022-07-29T05:18:40;7.43;;;2.15;;
351;SDS011;164;50.784;6.496;2022-07-29T05:21:10;3.65;;;2.50;;
351;SDS011;164;50.784;6.496;2022-07-29T05:23:37;4.57;;;2.33;;
351;SDS011;164;50.784;6.496;2022-07-29T05:26:07;5.57;;;2.15;;
351;SDS011;164;50.784;6.496;2022-07-29T05:28:34;3.92;;;1.73;;
351;SDS011;164;50.784;6.496;2022-07-29T05:31:05;4.60;;;2.97;;
351;SDS011;164;50.784;6.496;2022-07-29T05:33:32;5.57;;;3.10;;
351;SDS011;164;50.784;6.496;2022-07-29T05:35:59;4.05;;;2.72;;
351;SDS011;164;50.784;6.496;2022-07-29T05:38:26;7.53;;;2.75;;
351;SDS011;164;50.784;6.496;2022-07-29T05:40:55;3.47;;;2.60;;
351;SDS011;164;50.784;6.496;2022-07-29T05:43:23;3.63;;;3.38;;
351;SDS011;164;50.784;6.496;2022-07-29T05:45:49;4.57;;;2.72;;
351;SDS011;164;50.784;6.496;2022-07-29T05:48:18;3.50;;;3.30;;
351;SDS011;164;50.784;6.496;2022-07-29T05:50:45;3.63;;;3.13;;
351;SDS011;164;50.784;6.496;2022-07-29T05:53:15;3.35;;;3.10;;
351;SDS011;164;50.784;6.496;2022-07-29T05:55:42;4.63;;;2.90;;
351;SDS011;164;50.784;6.496;2022-07-29T05:58:11;5.13;;;4.13;;
351;SDS011;164;50.784;6.496;2022-07-29T06:00:39;5.60;;;4.68;;
351;SDS011;164;50.784;6.496;2022-07-29T06:03:06;6.15;;;4.18;;
351;SDS011;164;50.784;6.496;2022-07-29T06:05:34;4.07;;;3.83;;
351;SDS011;164;50.784;6.496;2022-07-29T06:08:01;5.38;;;4.05;;
351;SDS011;164;50.784;6.496;2022-07-29T06:10:30;5.15;;;3.78;;
351;SDS011;164;50.784;6.496;2022-07-29T06:12:57;6.53;;;3.95;;
351;SDS011;164;50.784;6.496;2022-07-29T06:15:24;5.72;;;3.33;;
351;SDS011;164;50.784;6.496;2022-07-29T06:17:51;7.30;;;4.40;;
351;SDS011;164;50.784;6.496;2022-07-29T06:20:18;5.10;;;4.00;;
351;SDS011;164;50.784;6.496;2022-07-29T06:22:47;5.28;;;3.55;;
351;SDS011;164;50.784;6.496;2022-07-29T06:25:14;7.38;;;3.83;;
351;SDS011;164;50.784;6.496;2022-07-29T06:27:44;4.72;;;4.15;;
351;SDS011;164;50.784;6.496;2022-07-29T06:30:13;8.10;;;5.25;;
351;SDS011;164;50.784;6.496;2022-07-29T06:32:40;11.32;;;4.55;;
351;SDS011;164;50.784;6.496;2022-07-29T06:35:08;7.18;;;3.78;;
351;SDS011;164;50.784;6.496;2022-07-29T06:37:35;4.80;;;3.53;;
351;SDS011;164;50.784;6.496;2022-07-29T06:40:10;6.65;;;4.68;;
351;SDS011;164;50.784;6.496;2022-07-29T06:42:55;7.93;;;4.72;;
351;SDS011;164;50.784;6.496;2022-07-29T06:45:22;6.45;;;4.80;;
351;SDS011;164;50.784;6.496;2022-07-29T06:47:52;5.18;;;4.28;;
351;SDS011;164;50.784;6.496;2022-07-29T06:50:19;5.45;;;4.60;;
351;SDS011;164;50.784;6.496;2022-07-29T06:52:46;5.80;;;5.30;;
351;SDS011;164;50.784;6.496;2022-07-29T06:55:17;7.95;;;4.95;;
351;SDS011;164;50.784;6.496;2022-07-29T06:57:45;5.20;;;4.85;;
351;SDS011;164;50.784;6.496;2022-07-29T07:00:12;7.15;;;4.95;;
351;SDS011;164;50.784;6.496;2022-07-29T07:02:40;5.55;;;5.25;;
351;SDS011;164;50.784;6.496;2022-07-29T07:05:07;8.73;;;4.90;;
351;SDS011;164;50.784;6.496;2022-07-29T07:07:34;4.97;;;4.70;;
351;SDS011;164;50.784;6.496;2022-07-29T07:10:02;5.03;;;4.78;;
351;SDS011;164;50.784;6.496;2022-07-29T07:12:33;5.15;;;4.85;;
351;SDS011;164;50.784;6.496;2022-07-29T07:15:00;8.98;;;5.00;;
351;SDS011;164;50.784;6.496;2022-07-29T07:17:28;6.15;;;4.47;;
351;SDS011;164;50.784;6.496;2022-07-29T07:19:55;4.40;;;4.10;;
351;SDS011;164;50.784;6.496;2022-07-29T07:22:22;9.57;;;5.88;;
351;SDS011;164;50.784;6.496;2022-07-29T07:24:49;7.57;;;4.43;;
351;SDS011;164;50.784;6.496;2022-07-29T07:27:19;7.00;;;4.63;;
351;SDS011;164;50.784;6.496;2022-07-29T07:29:47;5.60;;;3.70;;
351;SDS011;164;50.784;6.496;2022-07-29T07:32:14;6.18;;;4.35;;
351;SDS011;164;50.784;6.496;2022-07-29T07:34:41;6.40;;;4.57;;
351;SDS011;164;50.784;6.496;2022-07-29T07:37:08;5.70;;;4.78;;
351;SDS011;164;50.784;6.496;2022-07-29T07:39:35;7.28;;;4.68;;
351;SDS011;164;50.784;6.496;2022-07-29T07:42:02;5.22;;;4.10;;
351;SDS011;164;50.784;6.496;2022-07-29T07:44:29;7.85;;;4.57;;
351;SDS011;164;50.784;6.496;2022-07-29T07:46:57;6.68;;;4.13;;
351;SDS011;164;50.784;6.496;2022-07-29T07:49:26;5.13;;;3.90;;
351;SDS011;164;50.784;6.496;2022-07-29T07:51:54;4.50;;;4.20;;
351;SDS011;164;50.784;6.496;2022-07-29T07:54:21;6.60;;;3.70;;
351;SDS011;164;50.784;6.496;2022-07-29T07:56:48;7.15;;;4.85;;
351;SDS011;164;50.784;6.496;2022-07-29T07:59:15;4.38;;;4.07;;
351;SDS011;164;50.784;6.496;2022-07-29T08:01:43;4.22;;;3.97;;
351;SDS011;164;50.784;6.496;2022-07-29T08:04:12;4.30;;;4.03;;
351;SDS011;164;50.784;6.496;2022-07-29T08:06:39;5.03;;;4.40;;
351;SDS011;164;50.784;6.496;2022-07-29T08:09:06;5.05;;;4.72;;
351;SDS011;164;50.784;6.496;2022-07-29T08:11:33;5.05;;;3.90;;
351;SDS011;164;50.784;6.496;2022-07-29T08:14:00;4.78;;;4.47;;
351;SDS011;164;50.784;6.496;2022-07-29T08:16:27;5.82;;;4.88;;
351;SDS011;164;50.784;6.496;2022-07-29T08:18:54;4.88;;;4.57;;
351;SDS011;164;50.784;6.496;2022-07-29T08:21:23;4.60;;;4.28;;
351;SDS011;164;50.784;6.496;2022-07-29T08:23:51;4.70;;;4.10;;
351;SDS011;164;50.784;6.496;2022-07-29T08:26:38;8.57;;;5.25;;
351;SDS011;164;50.784;6.496;2022-07-29T08:29:06;4.60;;;4.32;;
351;SDS011;164;50.784;6.496;2022-07-29T08:31:33;4.57;;;4.28;;
351;SDS011;164;50.784;6.496;2022-07-29T08:34:00;6.00;;;4.20;;
351;SDS011;164;50.784;6.496;2022-07-29T08:36:31;5.25;;;3.85;;
351;SDS011;164;50.784;6.496;2022-07-29T08:39:02;5.70;;;3.90;;
351;SDS011;164;50.784;6.496;2022-07-29T08:41:29;6.35;;;4.10;;
351;SDS011;164;50.784;6.496;2022-07-29T08:43:57;4.50;;;3.33;;
351;SDS011;164;50.784;6.496;2022-07-29T08:46:24;4.55;;;3.72;;
351;SDS011;164;50.784;6.496;2022-07-29T08:48:51;4.38;;;3.90;;
351;SDS011;164;50.784;6.496;2022-07-29T08:51:19;4.45;;;3.83;;
351;SDS011;164;50.784;6.496;2022-07-29T08:53:49;7.40;;;3.72;;
351;SDS011;164;50.784;6.496;2022-07-29T08:56:19;4.90;;;3.05;;
351;SDS011;164;50.784;6.496;2022-07-29T08:58:48;4.32;;;3.97;;
351;SDS011;164;50.784;6.496;2022-07-29T09:01:16;6.55;;;4.32;;
351;SDS011;164;50.784;6.496;2022-07-29T09:03:47;5.22;;;3.97;;
351;SDS011;164;50.784;6.496;2022-07-29T09:06:17;5.60;;;3.95;;
351;SDS011;164;50.784;6.496;2022-07-29T09:08:45;5.20;;;3.55;;
351;SDS011;164;50.784;6.496;2022-07-29T09:11:15;5.30;;;4.00;;
351;SDS011;164;50.784;6.496;2022-07-29T09:13:42;7.22;;;4.57;;
351;SDS011;164;50.784;6.496;2022-07-29T09:16:09;5.20;;;3.97;;
351;SDS011;164;50.784;6.496;2022-07-29T09:18:40;5.18;;;3.50;;
351;SDS011;164;50.784;6.496;2022-07-29T09:21:11;3.65;;;3.45;;
351;SDS011;164;50.784;6.496;2022-07-29T09:23:59;3.95;;;3.10;;
351;SDS011;164;50.784;6.496;2022-07-29T09:26:37;5.00;;;3.40;;
351;SDS011;164;50.784;6.496;2022-07-29T09:29:08;4.32;;;3.13;;
351;SDS011;164;50.784;6.496;2022-07-29T09:31:40;5.15;;;2.85;;
351;SDS011;164;50.784;6.496;2022-07-29T09:34:11;5.25;;;3.50;;
351;SDS011;164;50.784;6.496;2022-07-29T09:36:40;7.03;;;3.10;;
351;SDS011;164;50.784;6.496;2022-07-29T09:39:08;7.60;;;3.63;;
351;SDS011;164;50.784;6.496;2022-07-29T09:41:47;5.23;;;3.47;;
351;SDS011;164;50.784;6.496;2022-07-29T09:44:18;6.63;;;3.60;;
351;SDS011;164;50.784;6.496;2022-07-29T09:46:52;3.50;;;2.27;;
351;SDS011;164;50.784;6.496;2022-07-29T09:49:20;4.22;;;2.63;;
351;SDS011;164;50.784;6.496;2022-07-29T09:51:58;3.87;;;3.00;;
351;SDS011;164;50.784;6.496;2022-07-29T09:54:26;3.40;;;3.20;;
351;SDS011;164;50.784;6.496;2022-07-29T09:57:04;4.83;;;2.97;;
351;SDS011;164;50.784;6.496;2022-07-29T09:59:34;3.50;;;3.23;;
351;SDS011;164;50.784;6.496;2022-07-29T10:02:01;6.70;;;4.60;;
351;SDS011;164;50.784;6.496;2022-07-29T10:04:40;4.03;;;3.23;;
351;SDS011;164;50.784;6.496;2022-07-29T10:07:08;7.10;;;3.70;;
351;SDS011;164;50.784;6.496;2022-07-29T10:09:35;4.35;;;3.38;;
351;SDS011;164;50.784;6.496;2022-07-29T10:12:05;3.13;;;2.67;;
351;SDS011;164;50.784;6.496;2022-07-29T10:14:34;4.82;;;2.83;;
351;SDS011;164;50.784;6.496;2022-07-29T10:17:02;4.10;;;3.50;;
351;SDS011;164;50.784;6.496;2022-07-29T10:19:31;3.70;;;2.60;;
351;SDS011;164;50.784;6.496;2022-07-29T10:21:59;3.10;;;2.72;;
351;SDS011;164;50.784;6.496;2022-07-29T10:24:27;3.72;;;2.85;;
351;SDS011;164;50.784;6.496;2022-07-29T10:26:56;3.60;;;2.43;;
351;SDS011;164;50.784;6.496;2022-07-29T10:29:25;2.80;;;2.17;;
351;SDS011;164;50.784;6.496;2022-07-29T10:31:58;6.90;;;2.72;;
351;SDS011;164;50.784;6.496;2022-07-29T10:34:59;5.00;;;3.47;;
351;SDS011;164;50.784;6.496;2022-07-29T10:37:37;4.93;;;2.92;;
351;SDS011;164;50.784;6.496;2022-07-29T10:40:15;7.13;;;3.20;;
351;SDS011;164;50.784;6.496;2022-07-29T10:43:08;3.37;;;2.63;;
351;SDS011;164;50.784;6.496;2022-07-29T10:45:45;5.10;;;3.13;;
351;SDS011;164;50.784;6.496;2022-07-29T10:48:14;2.90;;;2.50;;
351;SDS011;164;50.784;6.496;2022-07-29T10:50:51;3.28;;;2.45;;
351;SDS011;164;50.784;6.496;2022-07-29T10:53:20;5.47;;;3.07;;
351;SDS011;164;50.784;6.496;2022-07-29T10:55:47;4.83;;;2.70;;
351;SDS011;164;50.784;6.496;2022-07-29T10:58:16;7.63;;;3.17;;
351;SDS011;164;50.784;6.496;2022-07-29T11:00:47;5.57;;;3.10;;
351;SDS011;164;50.784;6.496;2022-07-29T11:06:10;4.43;;;2.70;;
351;SDS011;164;50.784;6.496;2022-07-29T11:08:37;3.60;;;2.43;;
351;SDS011;164;50.784;6.496;2022-07-29T11:14:06;4.47;;;2.47;;
351;SDS011;164;50.784;6.496;2022-07-29T11:19:30;6.10;;;2.43;;
351;SDS011;164;50.784;6.496;2022-07-29T11:21:58;4.25;;;2.50;;
351;SDS011;164;50.784;6.496;2022-07-29T11:24:26;2.90;;;2.60;;
351;SDS011;164;50.784;6.496;2022-07-29T11:27:14;3.97;;;2.97;;
351;SDS011;164;50.784;6.496;2022-07-29T11:29:49;5.87;;;2.37;;
351;SDS011;164;50.784;6.496;2022-07-29T11:32:19;4.53;;;2.87;;
351;SDS011;164;50.784;6.496;2022-07-29T11:34:47;2.90;;;2.70;;
351;SDS011;164;50.784;6.496;2022-07-29T11:37:22;4.53;;;3.43;;
351;SDS011;164;50.784;6.496;2022-07-29T11:40:10;4.17;;;3.63;;
351;SDS011;164;50.784;6.496;2022-07-29T11:42:45;4.45;;;3.05;;
351;SDS011;164;50.784;6.496;2022-07-29T11:45:22;5.30;;;2.85;;
351;SDS011;164;50.784;6.496;2022-07-29T11:47:55;5.40;;;3.90;;
351;SDS011;164;50.784;6.496;2022-07-29T11:50:33;7.30;;;4.40;;
351;SDS011;164;50.784;6.496;2022-07-29T11:53:03;5.47;;;4.30;;
351;SDS011;164;50.784;6.496;2022-07-29T11:55:38;6.00;;;3.90;;
351;SDS011;164;50.784;6.496;2022-07-29T11:58:05;5.57;;;4.03;;
351;SDS011;164;50.784;6.496;2022-07-29T12:00:33;5.03;;;3.80;;
351;SDS011;164;50.784;6.496;2022-07-29T12:03:04;4.30;;;3.40;;
351;SDS011;164;50.784;6.496;2022-07-29T12:05:37;3.70;;;3.27;;
351;SDS011;164;50.784;6.496;2022-07-29T12:11:25;6.83;;;3.60;;
351;SDS011;164;50.784;6.496;2022-07-29T12:13:52;4.50;;;3.70;;
351;SDS011;164;50.784;6.496;2022-07-29T12:16:20;6.93;;;3.50;;
351;SDS011;164;50.784;6.496;2022-07-29T12:18:55;3.70;;;3.17;;
351;SDS011;164;50.784;6.496;2022-07-29T12:21:23;6.37;;;4.10;;
351;SDS011;164;50.784;6.496;2022-07-29T12:23:53;6.97;;;3.60;;
351;SDS011;164;50.784;6.496;2022-07-29T12:26:20;3.63;;;3.00;;
351;SDS011;164;50.784;6.496;2022-07-29T12:28:47;4.43;;;3.70;;
351;SDS011;164;50.784;6.496;2022-07-29T12:31:15;4.47;;;3.43;;
351;SDS011;164;50.784;6.496;2022-07-29T12:33:42;4.40;;;2.90;;
351;SDS011;164;50.784;6.496;2022-07-29T12:36:19;5.37;;;3.60;;
351;SDS011;164;50.784;6.496;2022-07-29T12:38:46;4.00;;;3.80;;
351;SDS011;164;50.784;6.496;2022-07-29T12:41:13;4.37;;;2.90;;
351;SDS011;164;50.784;6.496;2022-07-29T12:43:51;3.60;;;3.30;;
351;SDS011;164;50.784;6.496;2022-07-29T12:46:19;4.03;;;3.53;;
351;SDS011;164;50.784;6.496;2022-07-29T12:48:49;7.20;;;3.40;;
351;SDS011;164;50.784;6.496;2022-07-29T12:51:25;5.23;;;3.90;;
351;SDS011;164;50.784;6.496;2022-07-29T12:54:01;3.77;;;3.43;;
351;SDS011;164;50.784;6.496;2022-07-29T12:56:30;3.83;;;3.13;;
351;SDS011;164;50.784;6.496;2022-07-29T12:58:57;4.10;;;3.60;;
351;SDS011;164;50.784;6.496;2022-07-29T13:01:24;5.47;;;4.50;;
351;SDS011;164;50.784;6.496;2022-07-29T13:03:53;4.00;;;3.30;;
351;SDS011;164;50.784;6.496;2022-07-29T13:06:35;4.23;;;3.67;;
351;SDS011;164;50.784;6.496;2022-07-29T13:09:05;4.70;;;3.70;;
351;SDS011;164;50.784;6.496;2022-07-29T13:11:36;4.53;;;3.10;;
351;SDS011;164;50.784;6.496;2022-07-29T13:14:05;3.13;;;3.00;;
351;SDS011;164;50.784;6.496;2022-07-29T13:16:34;5.30;;;3.30;;
351;SDS011;164;50.784;6.496;2022-07-29T13:19:04;3.00;;;2.80;;
351;SDS011;164;50.784;6.496;2022-07-29T13:21:34;4.70;;;2.77;;
351;SDS011;164;50.784;6.496;2022-07-29T13:24:01;4.00;;;2.73;;
351;SDS011;164;50.784;6.496;2022-07-29T13:26:29;2.93;;;2.13;;
351;SDS011;164;50.784;6.496;2022-07-29T13:28:56;4.10;;;3.33;;
351;SDS011;164;50.784;6.496;2022-07-29T13:31:24;2.53;;;2.30;;
351;SDS011;164;50.784;6.496;2022-07-29T13:33:51;3.10;;;1.90;;
351;SDS011;164;50.784;6.496;2022-07-29T13:36:18;3.60;;;2.40;;
351;SDS011;164;50.784;6.496;2022-07-29T13:38:47;5.53;;;2.93;;
351;SDS011;164;50.784;6.496;2022-07-29T13:41:14;4.77;;;2.87;;
351;SDS011;164;50.784;6.496;2022-07-29T13:43:41;4.00;;;2.77;;
351;SDS011;164;50.784;6.496;2022-07-29T13:46:08;7.00;;;3.30;;
351;SDS011;164;50.784;6.496;2022-07-29T13:48:34;3.03;;;2.63;;
351;SDS011;164;50.784;6.496;2022-07-29T13:51:01;4.20;;;2.60;;
351;SDS011;164;50.784;6.496;2022-07-29T13:53:28;3.30;;;3.10;;
351;SDS011;164;50.784;6.496;2022-07-29T13:55:57;3.07;;;2.87;;
351;SDS011;164;50.784;6.496;2022-07-29T13:58:24;4.50;;;3.67;;
351;SDS011;164;50.784;6.496;2022-07-29T14:00:50;3.80;;;3.03;;
351;SDS011;164;50.784;6.496;2022-07-29T14:03:17;5.37;;;3.43;;
351;SDS011;164;50.784;6.496;2022-07-29T14:05:44;4.70;;;3.30;;
351;SDS011;164;50.784;6.496;2022-07-29T14:08:11;2.57;;;2.27;;
351;SDS011;164;50.784;6.496;2022-07-29T14:10:38;4.37;;;2.70;;
351;SDS011;164;50.784;6.496;2022-07-29T14:13:07;4.73;;;1.97;;
351;SDS011;164;50.784;6.496;2022-07-29T14:15:34;2.67;;;2.43;;
351;SDS011;164;50.784;6.496;2022-07-29T14:18:01;3.67;;;2.70;;
351;SDS011;164;50.784;6.496;2022-07-29T14:20:28;3.20;;;2.13;;
351;SDS011;164;50.784;6.496;2022-07-29T14:22:55;3.10;;;2.00;;
351;SDS011;164;50.784;6.496;2022-07-29T14:25:23;4.60;;;2.53;;
351;SDS011;164;50.784;6.496;2022-07-29T14:27:50;3.20;;;2.20;;
351;SDS011;164;50.784;6.496;2022-07-29T14:30:19;3.03;;;2.60;;
351;SDS011;164;50.784;6.496;2022-07-29T14:32:46;2.63;;;2.50;;
351;SDS011;164;50.784;6.496;2022-07-29T14:35:14;3.20;;;2.10;;
351;SDS011;164;50.784;6.496;2022-07-29T14:37:41;2.43;;;2.23;;
351;SDS011;164;50.784;6.496;2022-07-29T14:40:08;3.63;;;2.40;;
351;SDS011;164;50.784;6.496;2022-07-29T14:42:36;4.30;;;2.10;;
351;SDS011;164;50.784;6.496;2022-07-29T14:45:04;7.27;;;2.20;;
351;SDS011;164;50.784;6.496;2022-07-29T14:47:34;4.27;;;2.80;;
351;SDS011;164;50.784;6.496;2022-07-29T14:50:02;3.00;;;2.17;;
351;SDS011;164;50.784;6.496;2022-07-29T14:52:30;3.90;;;2.20;;
351;SDS011;164;50.784;6.496;2022-07-29T14:54:57;3.50;;;3.30;;
351;SDS011;164;50.784;6.496;2022-07-29T14:57:24;3.73;;;2.50;;
351;SDS011;164;50.784;6.496;2022-07-29T14:59:51;4.17;;;2.20;;
351;SDS011;164;50.784;6.496;2022-07-29T15:02:18;5.00;;;2.20;;
351;SDS011;164;50.784;6.496;2022-07-29T15:04:46;1.60;;;1.57;;
351;SDS011;164;50.784;6.496;2022-07-29T15:07:14;2.97;;;1.60;;
351;SDS011;164;50.784;6.496;2022-07-29T15:09:41;5.80;;;2.70;;
351;SDS011;164;50.784;6.496;2022-07-29T15:12:10;2.33;;;1.90;;
351;SDS011;164;50.784;6.496;2022-07-29T15:14:37;1.93;;;1.80;;
351;SDS011;164;50.784;6.496;2022-07-29T15:17:04;4.63;;;1.90;;
351;SDS011;164;50.784;6.496;2022-07-29T15:19:31;4.87;;;2.33;;
351;SDS011;164;50.784;6.496;2022-07-29T15:21:59;2.70;;;1.97;;
351;SDS011;164;50.784;6.496;2022-07-29T15:24:26;2.00;;;1.90;;
351;SDS011;164;50.784;6.496;2022-07-29T15:26:53;3.27;;;2.03;;
351;SDS011;164;50.784;6.496;2022-07-29T15:29:20;2.00;;;1.70;;
351;SDS011;164;50.784;6.496;2022-07-29T15:31:47;4.23;;;1.77;;
351;SDS011;164;50.784;6.496;2022-07-29T15:34:14;2.80;;;1.77;;
351;SDS011;164;50.784;6.496;2022-07-29T15:36:41;2.00;;;1.83;;
351;SDS011;164;50.784;6.496;2022-07-29T15:39:09;4.00;;;2.00;;
351;SDS011;164;50.784;6.496;2022-07-29T15:41:36;2.57;;;1.83;;
351;SDS011;164;50.784;6.496;2022-07-29T15:44:03;2.00;;;1.87;;
351;SDS011;164;50.784;6.496;2022-07-29T15:46:30;2.97;;;1.70;;
351;SDS011;164;50.784;6.496;2022-07-29T15:49:15;2.70;;;1.70;;
351;SDS011;164;50.784;6.496;2022-07-29T15:51:42;2.90;;;1.53;;
351;SDS011;164;50.784;6.496;2022-07-29T15:54:10;2.17;;;1.60;;
351;SDS011;164;50.784;6.496;2022-07-29T15:56:37;3.10;;;1.97;;
351;SDS011;164;50.784;6.496;2022-07-29T15:59:04;2.70;;;1.83;;
351;SDS011;164;50.784;6.496;2022-07-29T16:01:31;2.20;;;1.27;;
351;SDS011;164;50.784;6.496;2022-07-29T16:03:58;1.90;;;1.90;;
351;SDS011;164;50.784;6.496;2022-07-29T16:06:25;1.83;;;1.80;;
351;SDS011;164;50.784;6.496;2022-07-29T16:08:52;2.30;;;2.10;;
351;SDS011;164;50.784;6.496;2022-07-29T16:11:21;2.70;;;2.00;;
351;SDS011;164;50.784;6.496;2022-07-29T16:13:48;2.53;;;1.80;;
351;SDS011;164;50.784;6.496;2022-07-29T16:16:15;2.13;;;2.00;;
351;SDS011;164;50.784;6.496;2022-07-29T16:18:42;2.47;;;2.20;;